createdAt,value
2018-09-13T00:00:34.361Z,0
2018-09-13T00:01:36.472Z,0
2018-09-13T00:02:38.552Z,0
2018-09-13T00:03:40.664Z,0
2018-09-13T00:04:42.759Z,0
2018-09-13T00:05:44.884Z,0
2018-09-13T00:06:47.350Z,0
2018-09-13T00:07:49.755Z,0
2018-09-13T00:08:51.851Z,0
2018-09-13T00:09:53.959Z,0
2018-09-13T00:10:56.067Z,0
2018-09-13T00:11:58.154Z,0
2018-09-13T00:13:00.252Z,0
2018-09-13T00:14:02.383Z,0
2018-09-13T00:15:05.032Z,0
2018-09-13T00:16:07.139Z,0
2018-09-13T00:17:09.533Z,0
2018-09-13T00:18:11.631Z,0
2018-09-13T00:19:13.742Z,0
2018-09-13T00:20:15.847Z,0
2018-09-13T00:21:18.243Z,0
2018-09-13T00:22:20.331Z,0
2018-09-13T00:23:22.442Z,0
2018-09-13T00:24:24.540Z,0
2018-09-13T00:25:26.643Z,0
2018-09-13T00:26:28.750Z,0
2018-09-13T00:27:31.523Z,0
2018-09-13T00:28:33.628Z,0
2018-09-13T00:29:36.022Z,0
2018-09-13T00:30:38.124Z,0
2018-09-13T00:31:40.208Z,0
2018-09-13T00:32:42.702Z,0
2018-09-13T00:33:45.109Z,0
2018-09-13T00:34:47.221Z,0
2018-09-13T00:35:49.301Z,0
2018-09-13T00:36:51.412Z,0
2018-09-13T00:37:53.515Z,0
2018-09-13T00:38:55.605Z,0
2018-09-13T00:39:57.996Z,0
2018-09-13T00:41:00.500Z,0
2018-09-13T00:42:02.599Z,0
2018-09-13T00:43:04.702Z,0
2018-09-13T00:44:07.093Z,0
2018-09-13T00:45:09.181Z,0
2018-09-13T00:46:11.566Z,0
2018-09-13T00:47:13.675Z,0
2018-09-13T00:48:15.765Z,0
2018-09-13T00:49:17.859Z,0
2018-09-13T00:50:19.968Z,0
2018-09-13T00:51:22.058Z,0
2018-09-13T00:52:24.468Z,0
2018-09-13T00:53:26.556Z,0
2018-09-13T00:54:28.939Z,0
2018-09-13T00:55:31.027Z,0
2018-09-13T00:56:33.529Z,0
2018-09-13T00:57:35.625Z,0
2018-09-13T00:58:37.762Z,0
2018-09-13T00:59:39.832Z,0
2018-09-13T01:00:42.599Z,0
2018-09-13T01:01:44.708Z,0
2018-09-13T01:02:46.806Z,0
2018-09-13T01:03:48.907Z,0
2018-09-13T01:04:50.994Z,0
2018-09-13T01:05:53.490Z,0
2018-09-13T01:06:55.585Z,0
2018-09-13T01:07:57.684Z,0
2018-09-13T01:08:59.791Z,0
2018-09-13T01:10:01.881Z,0
2018-09-13T01:11:03.978Z,0
2018-09-13T01:12:06.357Z,0
2018-09-13T01:13:08.750Z,0
2018-09-13T01:14:10.854Z,0
2018-09-13T01:15:12.951Z,0
2018-09-13T01:16:15.051Z,0
2018-09-13T01:17:17.152Z,0
2018-09-13T01:18:19.242Z,0
2018-09-13T01:19:21.353Z,0
2018-09-13T01:20:23.853Z,0
2018-09-13T01:21:25.961Z,0
2018-09-13T01:22:28.073Z,0
2018-09-13T01:23:30.167Z,0
2018-09-13T01:24:32.255Z,0
2018-09-13T01:25:34.367Z,0
2018-09-13T01:26:36.460Z,0
2018-09-13T01:27:38.559Z,0
2018-09-13T01:28:40.660Z,0
2018-09-13T01:29:42.771Z,0
2018-09-13T01:30:44.860Z,0
2018-09-13T01:31:46.968Z,0
2018-09-13T01:32:49.070Z,0
2018-09-13T01:33:51.153Z,0
2018-09-13T01:34:53.860Z,0
2018-09-13T01:35:55.952Z,0
2018-09-13T01:36:58.053Z,0
2018-09-13T01:38:00.138Z,0
2018-09-13T01:39:02.247Z,0
2018-09-13T01:40:04.651Z,0
2018-09-13T01:41:06.744Z,0
2018-09-13T01:42:09.178Z,0
2018-09-13T01:43:11.272Z,0
2018-09-13T01:44:13.372Z,0
2018-09-13T01:45:15.485Z,0
2018-09-13T01:46:17.582Z,0
2018-09-13T01:47:19.673Z,0
2018-09-13T01:48:21.781Z,0
2018-09-13T01:49:24.155Z,0
2018-09-13T01:50:26.546Z,0
2018-09-13T01:51:28.657Z,0
2018-09-13T01:52:30.768Z,0
2018-09-13T01:53:33.140Z,0
2018-09-13T01:54:35.256Z,0
2018-09-13T01:55:37.643Z,0
2018-09-13T01:56:39.736Z,0
2018-09-13T01:57:41.863Z,0
2018-09-13T01:58:44.264Z,0
2018-09-13T01:59:46.365Z,0
2018-09-13T02:00:48.462Z,0
2018-09-13T02:01:50.574Z,0
2018-09-13T02:02:52.658Z,0
2018-09-13T02:03:54.757Z,0
2018-09-13T02:04:57.165Z,0
2018-09-13T02:05:59.249Z,0
2018-09-13T02:07:01.360Z,0
2018-09-13T02:08:03.769Z,0
2018-09-13T02:09:05.870Z,0
2018-09-13T02:10:07.960Z,0
2018-09-13T02:11:10.073Z,0
2018-09-13T02:12:12.165Z,0
2018-09-13T02:13:14.258Z,0
2018-09-13T02:14:16.363Z,0
2018-09-13T02:15:18.745Z,0
2018-09-13T02:16:20.872Z,0
2018-09-13T02:17:23.558Z,0
2018-09-13T02:18:25.645Z,0
2018-09-13T02:19:27.746Z,0
2018-09-13T02:20:30.248Z,0
2018-09-13T02:21:32.340Z,0
2018-09-13T02:22:34.445Z,0
2018-09-13T02:23:36.829Z,0
2018-09-13T02:24:39.230Z,0
2018-09-13T02:25:41.329Z,0
2018-09-13T02:26:43.812Z,0
2018-09-13T02:27:45.918Z,0
2018-09-13T02:28:48.009Z,0
2018-09-13T02:29:50.101Z,0
2018-09-13T02:30:52.595Z,0
2018-09-13T02:31:54.681Z,0
2018-09-13T02:32:57.566Z,0
2018-09-13T02:34:00.668Z,0
2018-09-13T02:35:03.182Z,0
2018-09-13T02:36:05.651Z,0
2018-09-13T02:37:08.064Z,0
2018-09-13T02:38:10.456Z,0
2018-09-13T02:39:13.429Z,0
2018-09-13T02:40:16.130Z,0
2018-09-13T02:41:18.231Z,0
2018-09-13T02:42:20.623Z,0
2018-09-13T02:43:23.399Z,0
2018-09-13T02:44:25.799Z,0
2018-09-13T02:45:27.890Z,0
2018-09-13T02:46:29.989Z,0
2018-09-13T02:47:32.099Z,0
2018-09-13T02:48:34.178Z,0
2018-09-13T02:49:36.309Z,0
2018-09-13T02:50:38.712Z,0
2018-09-13T02:51:40.799Z,0
2018-09-13T02:52:43.184Z,0
2018-09-13T02:53:45.587Z,0
2018-09-13T02:54:47.693Z,0
2018-09-13T02:55:49.808Z,0
2018-09-13T02:56:51.913Z,0
2018-09-13T02:57:53.992Z,0
2018-09-13T02:58:56.373Z,0
2018-09-13T02:59:58.479Z,0
2018-09-13T03:01:00.962Z,0
2018-09-13T03:02:03.071Z,0
2018-09-13T03:03:05.470Z,0
2018-09-13T03:04:07.577Z,0
2018-09-13T03:05:09.665Z,0
2018-09-13T03:06:11.769Z,0
2018-09-13T03:07:13.876Z,0
2018-09-13T03:08:15.993Z,0
2018-09-13T03:09:18.059Z,0
2018-09-13T03:10:20.166Z,0
2018-09-13T03:11:22.664Z,0
2018-09-13T03:12:24.752Z,0
2018-09-13T03:13:26.865Z,0
2018-09-13T03:14:29.345Z,0
2018-09-13T03:15:31.446Z,0
2018-09-13T03:16:33.539Z,0
2018-09-13T03:17:35.957Z,0
2018-09-13T03:18:38.054Z,0
2018-09-13T03:19:40.154Z,0
2018-09-13T03:20:42.640Z,0
2018-09-13T03:21:44.725Z,0
2018-09-13T03:22:46.837Z,0
2018-09-13T03:23:49.516Z,0
2018-09-13T03:24:51.602Z,0
2018-09-13T03:25:53.697Z,0
2018-09-13T03:26:56.085Z,0
2018-09-13T03:27:58.178Z,0
2018-09-13T03:29:00.288Z,0
2018-09-13T03:30:02.777Z,0
2018-09-13T03:31:05.682Z,0
2018-09-13T03:32:08.491Z,0
2018-09-13T03:33:10.602Z,0
2018-09-13T03:34:12.683Z,0
2018-09-13T03:35:14.783Z,0
2018-09-13T03:36:16.888Z,0
2018-09-13T03:37:18.971Z,0
2018-09-13T03:38:21.090Z,0
2018-09-13T03:39:23.869Z,0
2018-09-13T03:40:26.254Z,0
2018-09-13T03:41:28.342Z,0
2018-09-13T03:42:30.452Z,0
2018-09-13T03:43:32.856Z,0
2018-09-13T03:44:35.239Z,0
2018-09-13T03:45:37.329Z,0
2018-09-13T03:46:39.443Z,0
2018-09-13T03:47:41.531Z,0
2018-09-13T03:48:43.633Z,0
2018-09-13T03:49:45.717Z,0
2018-09-13T03:50:47.825Z,0
2018-09-13T03:51:49.914Z,0
2018-09-13T03:52:52.009Z,0
2018-09-13T03:53:54.522Z,0
2018-09-13T03:54:56.599Z,0
2018-09-13T03:55:58.705Z,0
2018-09-13T03:57:00.820Z,0
2018-09-13T03:58:03.213Z,0
2018-09-13T03:59:05.304Z,0
2018-09-13T04:00:07.410Z,0
2018-09-13T04:01:09.507Z,0
2018-09-13T04:02:11.622Z,0
2018-09-13T04:03:14.128Z,0
2018-09-13T04:04:16.598Z,0
2018-09-13T04:05:18.980Z,0
2018-09-13T04:06:21.379Z,0
2018-09-13T04:07:23.458Z,0
2018-09-13T04:08:25.569Z,0
2018-09-13T04:09:27.673Z,0
2018-09-13T04:10:29.770Z,0
2018-09-13T04:11:32.565Z,0
2018-09-13T04:12:34.656Z,4
2018-09-13T04:13:36.760Z,4
2018-09-13T04:14:39.141Z,0
2018-09-13T04:15:41.536Z,4
2018-09-13T04:16:44.205Z,4
2018-09-13T04:17:46.304Z,8
2018-09-13T04:18:48.878Z,4
2018-09-13T04:19:51.345Z,8
2018-09-13T04:20:53.838Z,8
2018-09-13T04:21:55.929Z,8
2018-09-13T04:22:58.397Z,16
2018-09-13T04:24:01.168Z,16
2018-09-13T04:25:03.668Z,16
2018-09-13T04:26:05.756Z,24
2018-09-13T04:27:08.150Z,24
2018-09-13T04:28:10.257Z,32
2018-09-13T04:29:12.345Z,40
2018-09-13T04:30:14.748Z,44
2018-09-13T04:31:17.163Z,52
2018-09-13T04:32:19.262Z,56
2018-09-13T04:33:22.131Z,64
2018-09-13T04:34:24.910Z,76
2018-09-13T04:35:27.050Z,84
2018-09-13T04:36:29.092Z,100
2018-09-13T04:37:31.573Z,108
2018-09-13T04:38:33.618Z,124
2018-09-13T04:39:35.704Z,136
2018-09-13T04:40:37.813Z,152
2018-09-13T04:41:39.912Z,168
2018-09-13T04:42:42.001Z,180
2018-09-13T04:43:44.107Z,196
2018-09-13T04:44:46.187Z,212
2018-09-13T04:45:48.288Z,232
2018-09-13T04:46:50.385Z,252
2018-09-13T04:47:52.492Z,276
2018-09-13T04:48:54.863Z,304
2018-09-13T04:49:56.966Z,328
2018-09-13T04:50:59.061Z,356
2018-09-13T04:52:01.152Z,384
2018-09-13T04:53:03.554Z,420
2018-09-13T04:54:05.639Z,448
2018-09-13T04:55:08.395Z,492
2018-09-13T04:56:10.484Z,536
2018-09-13T04:57:12.593Z,580
2018-09-13T04:58:15.072Z,616
2018-09-13T04:59:17.163Z,656
2018-09-13T05:00:19.759Z,700
2018-09-13T05:01:21.754Z,756
2018-09-13T05:02:23.836Z,816
2018-09-13T05:03:26.228Z,876
2018-09-13T05:04:28.333Z,944
2018-09-13T05:05:30.431Z,1008
2018-09-13T05:06:32.583Z,1076
2018-09-13T05:07:34.982Z,1148
2018-09-13T05:08:37.662Z,1228
2018-09-13T05:09:39.751Z,1300
2018-09-13T05:10:41.858Z,1360
2018-09-13T05:11:43.951Z,1424
2018-09-13T05:12:46.055Z,1504
2018-09-13T05:13:48.529Z,1604
2018-09-13T05:14:50.625Z,1700
2018-09-13T05:15:52.711Z,1800
2018-09-13T05:16:54.812Z,1896
2018-09-13T05:17:56.894Z,1988
2018-09-13T05:18:58.998Z,2052
2018-09-13T05:20:01.388Z,2104
2018-09-13T05:21:03.489Z,2136
2018-09-13T05:22:05.575Z,2184
2018-09-13T05:23:08.072Z,2232
2018-09-13T05:24:10.495Z,2272
2018-09-13T05:25:12.544Z,2324
2018-09-13T05:26:14.940Z,2388
2018-09-13T05:27:17.025Z,2428
2018-09-13T05:28:19.805Z,2484
2018-09-13T05:29:21.893Z,2536
2018-09-13T05:30:24.292Z,2592
2018-09-13T05:31:26.381Z,2632
2018-09-13T05:32:28.789Z,2668
2018-09-13T05:33:30.887Z,2676
2018-09-13T05:34:32.970Z,2680
2018-09-13T05:35:35.071Z,2696
2018-09-13T05:36:37.165Z,2700
2018-09-13T05:37:39.273Z,2668
2018-09-13T05:38:41.721Z,2636
2018-09-13T05:39:43.751Z,2624
2018-09-13T05:40:46.160Z,2616
2018-09-13T05:41:48.249Z,2616
2018-09-13T05:42:50.346Z,2608
2018-09-13T05:43:52.454Z,2624
2018-09-13T05:44:54.957Z,2616
2018-09-13T05:45:57.344Z,2608
2018-09-13T05:46:59.447Z,2608
2018-09-13T05:48:01.935Z,2608
2018-09-13T05:49:04.313Z,2596
2018-09-13T05:50:06.418Z,2588
2018-09-13T05:51:08.561Z,2600
2018-09-13T05:52:11.041Z,2616
2018-09-13T05:53:13.538Z,2648
2018-09-13T05:54:15.645Z,2704
2018-09-13T05:55:17.726Z,2748
2018-09-13T05:56:20.121Z,2776
2018-09-13T05:57:22.891Z,2800
2018-09-13T05:58:24.975Z,2800
2018-09-13T05:59:27.475Z,2784
2018-09-13T06:00:29.849Z,2768
2018-09-13T06:01:32.270Z,2772
2018-09-13T06:02:34.359Z,2792
2018-09-13T06:03:36.756Z,2800
2018-09-13T06:04:38.839Z,2800
2018-09-13T06:05:40.931Z,2800
2018-09-13T06:06:43.039Z,2800
2018-09-13T06:07:45.125Z,2844
2018-09-13T06:08:47.234Z,2900
2018-09-13T06:09:49.331Z,2968
2018-09-13T06:10:51.728Z,3040
2018-09-13T06:11:53.824Z,3092
2018-09-13T06:12:55.949Z,3136
2018-09-13T06:13:58.027Z,3168
2018-09-13T06:15:00.113Z,3208
2018-09-13T06:16:02.216Z,3268
2018-09-13T06:17:04.609Z,3348
2018-09-13T06:18:07.092Z,3464
2018-09-13T06:19:09.186Z,3736
2018-09-13T06:20:11.294Z,3892
2018-09-13T06:21:13.383Z,3908
2018-09-13T06:22:15.864Z,4036
2018-09-13T06:23:17.968Z,4172
2018-09-13T06:24:20.065Z,4188
2018-09-13T06:25:22.167Z,4164
2018-09-13T06:26:24.574Z,4156
2018-09-13T06:27:26.683Z,4204
2018-09-13T06:28:29.160Z,4276
2018-09-13T06:29:31.302Z,4332
2018-09-13T06:30:33.799Z,4484
2018-09-13T06:31:35.885Z,4724
2018-09-13T06:32:37.995Z,4776
2018-09-13T06:33:40.478Z,4928
2018-09-13T06:34:42.577Z,5168
2018-09-13T06:35:44.668Z,5184
2018-09-13T06:36:46.782Z,5128
2018-09-13T06:37:48.867Z,4832
2018-09-13T06:38:50.965Z,4676
2018-09-13T06:39:53.075Z,4472
2018-09-13T06:40:55.160Z,4600
2018-09-13T06:41:57.959Z,4656
2018-09-13T06:43:00.360Z,4580
2018-09-13T06:44:02.452Z,5044
2018-09-13T06:45:04.547Z,5060
2018-09-13T06:46:06.657Z,5116
2018-09-13T06:47:09.135Z,5096
2018-09-13T06:48:11.543Z,5276
2018-09-13T06:49:13.641Z,5384
2018-09-13T06:50:15.731Z,5552
2018-09-13T06:51:17.833Z,5656
2018-09-13T06:52:19.943Z,5716
2018-09-13T06:53:22.026Z,5760
2018-09-13T06:54:24.123Z,5768
2018-09-13T06:55:26.223Z,5768
2018-09-13T06:56:28.315Z,5776
2018-09-13T06:57:30.427Z,5784
2018-09-13T06:58:32.524Z,5804
2018-09-13T06:59:34.624Z,5816
2018-09-13T07:00:36.711Z,5844
2018-09-13T07:01:38.830Z,5876
2018-09-13T07:02:40.918Z,5924
2018-09-13T07:03:43.018Z,5952
2018-09-13T07:04:45.137Z,5992
2018-09-13T07:05:47.223Z,6032
2018-09-13T07:06:49.728Z,6068
2018-09-13T07:07:51.837Z,6100
2018-09-13T07:08:54.547Z,6140
2018-09-13T07:09:56.950Z,6196
2018-09-13T07:10:59.060Z,6232
2018-09-13T07:12:01.158Z,6256
2018-09-13T07:13:03.726Z,6304
2018-09-13T07:14:06.134Z,6336
2018-09-13T07:15:08.227Z,6356
2018-09-13T07:16:10.326Z,6380
2018-09-13T07:17:12.439Z,6404
2018-09-13T07:18:14.835Z,6388
2018-09-13T07:19:17.237Z,6400
2018-09-13T07:20:19.337Z,6448
2018-09-13T07:21:21.428Z,6504
2018-09-13T07:22:23.531Z,6532
2018-09-13T07:23:25.698Z,6568
2018-09-13T07:24:27.749Z,6604
2018-09-13T07:25:30.126Z,6652
2018-09-13T07:26:32.536Z,6684
2018-09-13T07:27:35.206Z,6732
2018-09-13T07:28:37.337Z,6776
2018-09-13T07:29:39.444Z,6800
2018-09-13T07:30:42.245Z,6840
2018-09-13T07:31:44.334Z,6888
2018-09-13T07:32:46.434Z,6920
2018-09-13T07:33:48.525Z,6964
2018-09-13T07:34:50.649Z,7000
2018-09-13T07:35:52.739Z,7064
2018-09-13T07:36:55.331Z,7104
2018-09-13T07:37:58.030Z,7172
2018-09-13T07:39:00.418Z,7788
2018-09-13T07:40:02.534Z,18816
2018-09-13T07:41:04.635Z,34304
2018-09-13T07:42:06.744Z,37600
2018-09-13T07:43:09.126Z,37344
2018-09-13T07:44:11.240Z,38656
2018-09-13T07:45:13.339Z,39744
2018-09-13T07:46:15.437Z,41312
2018-09-13T07:47:17.945Z,40448
2018-09-13T07:48:20.031Z,42240
2018-09-13T07:49:22.173Z,42720
2018-09-13T07:50:24.643Z,42400
2018-09-13T07:51:26.753Z,46080
2018-09-13T07:52:29.140Z,52928
2018-09-13T07:53:31.254Z,46144
2018-09-13T07:54:33.344Z,48736
2018-09-13T07:55:35.753Z,47264
2018-09-13T07:56:37.859Z,47424
2018-09-13T07:57:39.965Z,47808
2018-09-13T07:58:42.064Z,39232
2018-09-13T07:59:44.183Z,38112
2018-09-13T08:00:46.675Z,37504
2018-09-13T08:01:48.773Z,37824
2018-09-13T08:02:50.945Z,39168
2018-09-13T08:03:53.799Z,40960
2018-09-13T08:04:55.929Z,43712
2018-09-13T08:05:58.420Z,43360
2018-09-13T08:07:00.542Z,54464
2018-09-13T08:08:02.648Z,70304
2018-09-13T08:09:04.745Z,54304
2018-09-13T08:10:06.852Z,57408
2018-09-13T08:11:08.964Z,35936
2018-09-13T08:12:11.254Z,35040
2018-09-13T08:13:13.173Z,35456
2018-09-13T08:14:15.575Z,36448
2018-09-13T08:15:17.755Z,37632
2018-09-13T08:16:20.407Z,41536
2018-09-13T08:17:22.810Z,43520
2018-09-13T08:18:24.972Z,42240
2018-09-13T08:19:27.072Z,42240
2018-09-13T08:20:29.189Z,44512
2018-09-13T08:21:31.304Z,49024
2018-09-13T08:22:33.391Z,52032
2018-09-13T08:23:35.505Z,48256
2018-09-13T08:24:37.618Z,45920
2018-09-13T08:25:40.105Z,47872
2018-09-13T08:26:42.603Z,54240
2018-09-13T08:27:44.702Z,61824
2018-09-13T08:28:46.806Z,62080
2018-09-13T08:29:48.919Z,60800
2018-09-13T08:30:51.029Z,61952
2018-09-13T08:31:53.130Z,60576
2018-09-13T08:32:55.645Z,62272
2018-09-13T08:33:57.752Z,63552
2018-09-13T08:35:00.133Z,60512
2018-09-13T08:36:03.056Z,62016
2018-09-13T08:37:05.207Z,60224
2018-09-13T08:38:07.687Z,58464
2018-09-13T08:39:09.798Z,58912
2018-09-13T08:40:12.255Z,62208
2018-09-13T08:41:14.325Z,68064
2018-09-13T08:42:16.440Z,68128
2018-09-13T08:43:18.554Z,66016
2018-09-13T08:44:20.680Z,69312
2018-09-13T08:45:22.764Z,74592
2018-09-13T08:46:24.886Z,76512
2018-09-13T08:47:27.397Z,71296
2018-09-13T08:48:29.815Z,67872
2018-09-13T08:49:31.912Z,71104
2018-09-13T08:50:34.081Z,70400
2018-09-13T08:51:36.360Z,66624
2018-09-13T08:52:38.526Z,65248
2018-09-13T08:53:40.936Z,67232
2018-09-13T08:54:43.038Z,68128
2018-09-13T08:55:45.206Z,65632
2018-09-13T08:56:47.567Z,62016
2018-09-13T08:57:49.681Z,62464
2018-09-13T08:58:51.794Z,66176
2018-09-13T08:59:53.907Z,70336
2018-09-13T09:00:56.009Z,73984
2018-09-13T09:01:58.122Z,74304
2018-09-13T09:03:00.247Z,76480
2018-09-13T09:04:02.368Z,76704
2018-09-13T09:05:04.464Z,72928
2018-09-13T09:06:06.621Z,76736
2018-09-13T09:07:08.712Z,75680
2018-09-13T09:08:10.824Z,74208
2018-09-13T09:09:12.954Z,79168
2018-09-13T09:10:15.372Z,80736
2018-09-13T09:11:17.506Z,79456
2018-09-13T09:12:19.619Z,87744
2018-09-13T09:13:21.744Z,88832
2018-09-13T09:14:23.845Z,85888
2018-09-13T09:15:25.968Z,85536
2018-09-13T09:16:28.090Z,83328
2018-09-13T09:17:30.202Z,80192
2018-09-13T09:18:32.726Z,79552
2018-09-13T09:19:35.679Z,83744
2018-09-13T09:20:37.798Z,82976
2018-09-13T09:21:39.912Z,78560
2018-09-13T09:22:42.040Z,79712
2018-09-13T09:23:44.463Z,85152
2018-09-13T09:24:46.585Z,85056
2018-09-13T09:25:48.705Z,82272
2018-09-13T09:26:50.813Z,82144
2018-09-13T09:27:53.235Z,87680
2018-09-13T09:28:55.410Z,74816
2018-09-13T09:29:57.903Z,83136
2018-09-13T09:31:00.010Z,87712
2018-09-13T09:32:02.139Z,87616
2018-09-13T09:33:04.251Z,84960
2018-09-13T09:34:06.375Z,87904
2018-09-13T09:35:08.549Z,89664
2018-09-13T09:36:11.364Z,87072
2018-09-13T09:37:13.481Z,87552
2018-09-13T09:38:15.606Z,86688
2018-09-13T09:39:17.710Z,62880
2018-09-13T09:40:19.838Z,89440
2018-09-13T09:41:21.965Z,90496
2018-09-13T09:42:24.649Z,94752
2018-09-13T09:43:26.781Z,93696
2018-09-13T09:44:28.902Z,93856
2018-09-13T09:45:31.016Z,99104
2018-09-13T09:46:33.128Z,110112
2018-09-13T09:47:35.578Z,109792
2018-09-13T09:48:37.791Z,103776
2018-09-13T09:49:39.917Z,99968
2018-09-13T09:50:42.045Z,99296
2018-09-13T09:51:44.159Z,103520
2018-09-13T09:52:46.294Z,98752
2018-09-13T09:53:48.414Z,96800
2018-09-13T09:54:50.833Z,96160
2018-09-13T09:55:52.947Z,97760
2018-09-13T09:56:55.077Z,102496
2018-09-13T09:57:57.273Z,78432
2018-09-13T09:58:59.782Z,105344
2018-09-13T10:00:01.916Z,70208
2018-09-13T10:01:04.328Z,58016
2018-09-13T10:02:06.451Z,96832
2018-09-13T10:03:08.621Z,121696
2018-09-13T10:04:10.726Z,59904
2018-09-13T10:05:12.817Z,67488
2018-09-13T10:06:14.934Z,54432
2018-09-13T10:07:17.061Z,49952
2018-09-13T10:08:19.188Z,43616
2018-09-13T10:09:21.293Z,41024
2018-09-13T10:10:23.412Z,74112
2018-09-13T10:11:25.538Z,56064
2018-09-13T10:12:27.639Z,71808
2018-09-13T10:13:30.150Z,60896
2018-09-13T10:14:32.555Z,36000
2018-09-13T10:15:34.667Z,104416
2018-09-13T10:16:36.799Z,97760
2018-09-13T10:17:38.918Z,91904
2018-09-13T10:18:41.038Z,90464
2018-09-13T10:19:43.541Z,73536
2018-09-13T10:20:45.669Z,88000
2018-09-13T10:21:47.778Z,89216
2018-09-13T10:22:50.276Z,83040
2018-09-13T10:23:52.350Z,79424
2018-09-13T10:24:54.492Z,77792
2018-09-13T10:25:56.584Z,90048
2018-09-13T10:26:59.051Z,87520
2018-09-13T10:28:01.597Z,77216
2018-09-13T10:29:04.112Z,78016
2018-09-13T10:30:06.217Z,98048
2018-09-13T10:31:08.335Z,91328
2018-09-13T10:32:10.451Z,86016
2018-09-13T10:33:12.588Z,83520
2018-09-13T10:34:14.697Z,85472
2018-09-13T10:35:17.105Z,89536
2018-09-13T10:36:19.233Z,91936
2018-09-13T10:37:21.355Z,91392
2018-09-13T10:38:23.464Z,96096
2018-09-13T10:39:25.585Z,99328
2018-09-13T10:40:27.721Z,96480
2018-09-13T10:41:29.873Z,98880
2018-09-13T10:42:32.359Z,97888
2018-09-13T10:43:34.488Z,100032
2018-09-13T10:44:36.609Z,100192
2018-09-13T10:45:38.714Z,94816
2018-09-13T10:46:40.843Z,94208
2018-09-13T10:47:43.123Z,93696
2018-09-13T10:48:45.127Z,98304
2018-09-13T10:49:47.257Z,98464
2018-09-13T10:50:49.662Z,97472
2018-09-13T10:51:51.781Z,98304
2018-09-13T10:52:53.891Z,91744
2018-09-13T10:53:56.022Z,89024
2018-09-13T10:54:58.131Z,92128
2018-09-13T10:56:00.255Z,95232
2018-09-13T10:57:02.694Z,95840
2018-09-13T10:58:04.798Z,93280
2018-09-13T10:59:06.940Z,76992
2018-09-13T11:00:09.816Z,103232
2018-09-13T11:01:11.942Z,54112
2018-09-13T11:02:14.050Z,66112
2018-09-13T11:03:16.177Z,70848
2018-09-13T11:04:18.311Z,81632
2018-09-13T11:05:20.414Z,53920
2018-09-13T11:06:22.545Z,102944
2018-09-13T11:07:24.653Z,102624
2018-09-13T11:08:26.774Z,103744
2018-09-13T11:09:28.905Z,102912
2018-09-13T11:10:31.059Z,101024
2018-09-13T11:11:33.133Z,100448
2018-09-13T11:12:35.648Z,99904
2018-09-13T11:13:37.765Z,99424
2018-09-13T11:14:39.884Z,103232
2018-09-13T11:15:42.015Z,103360
2018-09-13T11:16:44.522Z,100992
2018-09-13T11:17:46.650Z,107072
2018-09-13T11:18:48.756Z,107232
2018-09-13T11:19:50.882Z,105600
2018-09-13T11:20:53.015Z,57152
2018-09-13T11:21:55.521Z,27776
2018-09-13T11:22:57.966Z,76736
2018-09-13T11:24:00.092Z,26688
2018-09-13T11:25:02.271Z,83200
2018-09-13T11:26:04.335Z,111552
2018-09-13T11:27:06.470Z,88000
2018-09-13T11:28:08.583Z,32960
2018-09-13T11:29:10.717Z,28928
2018-09-13T11:30:12.841Z,34112
2018-09-13T11:31:14.950Z,20768
2018-09-13T11:32:17.081Z,19840
2018-09-13T11:33:19.200Z,19264
2018-09-13T11:34:21.325Z,20672
2018-09-13T11:35:23.426Z,22240
2018-09-13T11:36:25.841Z,22784
2018-09-13T11:37:27.966Z,26656
2018-09-13T11:38:30.377Z,27456
2018-09-13T11:39:32.511Z,30560
2018-09-13T11:40:34.868Z,28480
2018-09-13T11:41:36.750Z,26496
2018-09-13T11:42:38.879Z,23296
2018-09-13T11:43:40.994Z,21568
2018-09-13T11:44:43.103Z,21600
2018-09-13T11:45:45.219Z,22336
2018-09-13T11:46:47.722Z,22112
2018-09-13T11:47:49.837Z,21440
2018-09-13T11:48:51.961Z,22464
2018-09-13T11:49:54.073Z,24864
2018-09-13T11:50:56.188Z,26976
2018-09-13T11:51:58.316Z,25056
2018-09-13T11:53:00.427Z,24800
2018-09-13T11:54:02.633Z,24544
2018-09-13T11:55:04.669Z,24448
2018-09-13T11:56:06.769Z,24576
2018-09-13T11:57:09.276Z,24704
2018-09-13T11:58:11.388Z,24352
2018-09-13T11:59:13.511Z,23968
2018-09-13T12:00:15.615Z,23392
2018-09-13T12:01:17.828Z,22944
2018-09-13T12:02:20.739Z,23264
2018-09-13T12:03:22.844Z,24096
2018-09-13T12:04:25.029Z,25504
2018-09-13T12:05:27.441Z,27040
2018-09-13T12:06:29.558Z,27680
2018-09-13T12:07:31.676Z,27904
2018-09-13T12:08:33.803Z,28288
2018-09-13T12:09:35.961Z,28576
2018-09-13T12:10:38.031Z,28608
2018-09-13T12:11:40.147Z,28480
2018-09-13T12:12:42.250Z,28512
2018-09-13T12:13:44.669Z,28448
2018-09-13T12:14:46.786Z,28928
2018-09-13T12:15:48.895Z,29568
2018-09-13T12:16:51.013Z,30336
2018-09-13T12:17:53.147Z,31072
2018-09-13T12:18:55.248Z,31328
2018-09-13T12:19:57.369Z,31776
2018-09-13T12:20:59.480Z,32800
2018-09-13T12:22:01.584Z,35200
2018-09-13T12:23:03.713Z,36064
2018-09-13T12:24:05.817Z,36768
2018-09-13T12:25:07.912Z,41632
2018-09-13T12:26:10.029Z,38272
2018-09-13T12:27:12.143Z,38208
2018-09-13T12:28:14.248Z,39712
2018-09-13T12:29:16.377Z,39424
2018-09-13T12:30:18.484Z,41984
2018-09-13T12:31:20.602Z,40896
2018-09-13T12:32:22.710Z,40384
2018-09-13T12:33:24.829Z,45952
2018-09-13T12:34:26.955Z,42048
2018-09-13T12:35:29.371Z,41984
2018-09-13T12:36:31.472Z,42720
2018-09-13T12:37:33.603Z,40640
2018-09-13T12:38:35.715Z,39872
2018-09-13T12:39:37.826Z,38752
2018-09-13T12:40:39.941Z,39104
2018-09-13T12:41:42.072Z,39008
2018-09-13T12:42:44.176Z,39520
2018-09-13T12:43:46.688Z,36640
2018-09-13T12:44:48.809Z,36064
2018-09-13T12:45:50.914Z,35776
2018-09-13T12:46:53.041Z,37280
2018-09-13T12:47:55.441Z,35808
2018-09-13T12:48:57.543Z,35232
2018-09-13T12:50:00.102Z,34976
2018-09-13T12:51:02.585Z,34720
2018-09-13T12:52:04.761Z,35968
2018-09-13T12:53:07.136Z,35808
2018-09-13T12:54:09.250Z,35488
2018-09-13T12:55:11.354Z,34944
2018-09-13T12:56:13.522Z,33824
2018-09-13T12:57:15.590Z,33056
2018-09-13T12:58:17.695Z,32864
2018-09-13T12:59:20.205Z,32672
2018-09-13T13:00:22.326Z,32704
2018-09-13T13:01:24.428Z,31520
2018-09-13T13:02:26.557Z,30400
2018-09-13T13:03:28.664Z,30272
2018-09-13T13:04:30.780Z,30496
2018-09-13T13:05:32.883Z,30880
2018-09-13T13:06:35.429Z,33664
2018-09-13T13:07:38.158Z,37952
2018-09-13T13:08:40.283Z,35936
2018-09-13T13:09:42.400Z,30048
2018-09-13T13:10:44.515Z,26432
2018-09-13T13:11:46.615Z,28864
2018-09-13T13:12:48.734Z,25952
2018-09-13T13:13:50.859Z,34720
2018-09-13T13:14:53.052Z,60672
2018-09-13T13:15:55.171Z,25344
2018-09-13T13:16:57.362Z,25408
2018-09-13T13:17:59.417Z,25792
2018-09-13T13:19:01.514Z,24960
2018-09-13T13:20:03.633Z,22528
2018-09-13T13:21:05.751Z,22304
2018-09-13T13:22:07.856Z,27168
2018-09-13T13:23:09.969Z,36512
2018-09-13T13:24:12.092Z,22752
2018-09-13T13:25:14.492Z,27616
2018-09-13T13:26:16.656Z,25472
2018-09-13T13:27:18.937Z,20544
2018-09-13T13:28:21.204Z,18068
2018-09-13T13:29:23.608Z,15268
2018-09-13T13:30:26.123Z,15408
2018-09-13T13:31:28.224Z,14732
2018-09-13T13:32:31.266Z,14868
2018-09-13T13:33:33.382Z,15524
2018-09-13T13:34:35.873Z,15396
2018-09-13T13:35:38.682Z,15648
2018-09-13T13:36:41.174Z,15268
2018-09-13T13:37:43.289Z,14544
2018-09-13T13:38:45.391Z,14652
2018-09-13T13:39:47.518Z,16060
2018-09-13T13:40:49.633Z,17656
2018-09-13T13:41:52.328Z,18720
2018-09-13T13:42:54.452Z,19072
2018-09-13T13:43:56.604Z,19552
2018-09-13T13:44:59.406Z,20800
2018-09-13T13:46:01.518Z,24192
2018-09-13T13:47:03.633Z,22912
2018-09-13T13:48:05.729Z,21440
2018-09-13T13:49:07.843Z,21280
2018-09-13T13:50:09.961Z,21920
2018-09-13T13:51:12.670Z,19904
2018-09-13T13:52:14.772Z,19552
2018-09-13T13:53:16.894Z,19968
2018-09-13T13:54:18.999Z,18816
2018-09-13T13:55:21.102Z,18232
2018-09-13T13:56:23.215Z,18376
2018-09-13T13:57:25.340Z,19008
2018-09-13T13:58:27.452Z,20768
2018-09-13T13:59:29.861Z,21920
2018-09-13T14:00:31.975Z,22816
2018-09-13T14:01:34.082Z,22560
2018-09-13T14:02:36.190Z,20608